Terminal Aerodrome Forecast
Issued by NWS Paducah, KY

Home | Current Version | Previous Version | Text Only | Print | Product List | Glossary On
Versions: 1 2 3 4 5 6 7 8 9 10 11 12 13 14 15 16
000
FTUS43 KPAH 300500
TAFPAH
TAF
KPAH 300520Z 3006/0106 00000KT P6SM SKC
     FM300800 00000KT 1 1/2SM BR SKC
      TEMPO 3010/3012 1/2SM FG VV003
     FM301300 VRB04KT P6SM SCT040
     FM010100 VRB03KT P6SM SKC=

USA.gov is the U.S. government's official web portal to all federal, state and local government web resources and services.